Time;durP1;ratioP1;P1;durP2;ratioP2;P2;SDS_P1;SDS_P2;PMS_P1;PMS_P2;Temp;Humidity;BMP_temperature;BMP_pressure;BME280_temperature;BME280_humidity;BME280_pressure;Samples;Min_cycle;Max_cycle;Signal;HPM_P1;HPM_P2
2023/09/29 00:00:41;;;;;;;0.00;0.00;;;19.10;99.60;;;;;;5020634;28;20059;-84
2023/09/29 00:03:08;;;;;;;0.00;0.00;;;19.10;99.70;;;;;;5020832;28;20461;-85
2023/09/29 00:05:34;;;;;;;0.00;0.00;;;19.20;99.10;;;;;;5020326;28;20018;-85
2023/09/29 00:08:00;;;;;;;1.08;0.80;;;19.10;98.90;;;;;;5023131;28;20040;-85
2023/09/29 00:10:26;;;;;;;0.00;0.00;;;19.00;99.40;;;;;;5022288;28;20049;-85
2023/09/29 00:12:52;;;;;;;0.17;0.17;;;19.00;99.20;;;;;;5021486;28;20030;-86
2023/09/29 00:15:18;;;;;;;0.10;0.10;;;18.90;99.60;;;;;;5018053;28;20068;-84
2023/09/29 00:17:45;;;;;;;0.00;0.00;;;18.90;99.70;;;;;;5020186;28;20096;-84
2023/09/29 00:20:24;;;;;;;0.00;0.00;;;18.90;99.60;;;;;;5021743;28;20883;-83
2023/09/29 00:22:58;;;;;;;0.00;0.00;;;18.90;99.90;;;;;;5016094;28;20038;-82
2023/09/29 00:25:24;;;;;;;0.00;0.00;;;18.90;99.90;;;;;;5020130;28;20584;-84
2023/09/29 00:27:50;;;;;;;0.00;0.00;;;18.80;99.90;;;;;;5021234;28;20029;-83
2023/09/29 00:30:17;;;;;;;0.00;0.00;;;18.70;99.90;;;;;;5023724;28;20034;-82
2023/09/29 00:32:50;;;;;;;0.00;0.00;;;18.70;99.90;;;;;;5024122;28;20025;-83
2023/09/29 00:35:38;;;;;;;0.00;0.00;;;18.80;99.90;;;;;;5016296;28;20057;-83
2023/09/29 00:38:03;;;;;;;0.00;0.00;;;18.80;99.90;;;;;;5026099;28;20065;-82
2023/09/29 00:40:29;;;;;;;0.00;0.00;;;18.80;99.90;;;;;;5028168;28;20453;-82
2023/09/29 00:42:57;;;;;;;0.00;0.00;;;18.80;99.90;;;;;;5030961;28;20025;-85
2023/09/29 00:45:25;;;;;;;0.00;0.00;;;18.80;99.90;;;;;;5024606;28;20272;-83
2023/09/29 00:47:57;;;;;;;0.00;0.00;;;18.80;99.90;;;;;;5025479;28;20052;-83
2023/09/29 00:50:28;;;;;;;0.00;0.00;;;18.80;99.90;;;;;;5023718;28;20116;-82
2023/09/29 00:52:58;;;;;;;0.00;0.00;;;18.70;99.90;;;;;;5026666;28;20036;-84
2023/09/29 00:55:28;;;;;;;0.00;0.00;;;18.70;99.90;;;;;;5024249;28;20100;-83
2023/09/29 00:57:57;;;;;;;0.00;0.00;;;18.60;99.90;;;;;;5022764;28;20714;-83
2023/09/29 01:00:30;;;;;;;0.00;0.00;;;18.60;99.90;;;;;;5022242;28;20048;-85
2023/09/29 01:03:03;;;;;;;0.00;0.00;;;18.50;99.90;;;;;;5020102;28;20017;-85
2023/09/29 01:05:32;;;;;;;0.00;0.00;;;18.40;99.90;;;;;;5021039;28;20026;-84
2023/09/29 01:07:58;;;;;;;0.00;0.00;;;18.30;99.90;;;;;;5016081;28;20176;-82
2023/09/29 01:10:24;;;;;;;0.10;0.10;;;18.40;99.90;;;;;;5017245;28;20041;-83
2023/09/29 01:12:50;;;;;;;0.00;0.00;;;18.30;99.90;;;;;;5018583;28;20037;-83
2023/09/29 01:15:17;;;;;;;0.00;0.00;;;18.20;99.90;;;;;;5020239;28;20048;-82
2023/09/29 01:17:43;;;;;;;0.00;0.00;;;18.20;99.90;;;;;;5023277;28;20035;-82
2023/09/29 01:20:16;;;;;;;;;;;18.20;99.90;;;;;;5022355;28;20637;-82
2023/09/29 01:22:48;;;;;;;0.05;0.05;;;18.20;99.90;;;;;;5019094;28;20662;-83
2023/09/29 01:25:15;;;;;;;0.00;0.00;;;18.20;99.90;;;;;;5018220;28;20049;-82
2023/09/29 01:27:41;;;;;;;0.00;0.00;;;18.20;99.90;;;;;;5017663;28;20037;-82
2023/09/29 01:30:07;;;;;;;0.00;0.00;;;18.20;99.90;;;;;;5013531;28;20127;-81
2023/09/29 01:32:34;;;;;;;0.00;0.00;;;18.10;99.90;;;;;;5015918;28;20021;-83
2023/09/29 01:35:00;;;;;;;0.00;0.00;;;18.00;99.90;;;;;;5019264;28;20033;-84
2023/09/29 01:37:26;;;;;;;0.00;0.00;;;18.00;99.90;;;;;;5022133;28;20029;-83
2023/09/29 01:39:52;;;;;;;0.07;0.07;;;18.00;99.90;;;;;;5026127;28;20110;-83
2023/09/29 01:42:18;;;;;;;0.10;0.10;;;18.10;99.90;;;;;;5022210;28;20025;-84
2023/09/29 01:44:44;;;;;;;0.00;0.00;;;18.00;99.90;;;;;;5019867;28;20081;-82
2023/09/29 01:47:10;;;;;;;0.10;0.10;;;18.00;99.90;;;;;;5020569;28;20510;-81
2023/09/29 01:49:38;;;;;;;0.00;0.00;;;17.90;99.90;;;;;;5013882;28;20116;-81
2023/09/29 01:52:04;;;;;;;0.00;0.00;;;17.80;99.90;;;;;;5019886;28;20040;-82
2023/09/29 01:54:31;;;;;;;0.00;0.00;;;17.80;99.90;;;;;;5020840;28;20036;-81
2023/09/29 01:56:57;;;;;;;0.00;0.00;;;17.70;99.90;;;;;;5017070;28;20120;-84
2023/09/29 01:59:22;;;;;;;0.00;0.00;;;17.70;99.90;;;;;;5016695;28;20651;-82
2023/09/29 02:01:48;;;;;;;0.00;0.00;;;17.70;99.90;;;;;;5019804;28;20040;-80
2023/09/29 02:04:14;;;;;;;0.00;0.00;;;17.70;99.90;;;;;;5018724;28;20476;-82
2023/09/29 02:06:40;;;;;;;0.00;0.00;;;17.80;99.90;;;;;;5018623;28;20046;-82
2023/09/29 02:09:10;;;;;;;0.00;0.00;;;17.70;99.90;;;;;;5016419;28;20593;-83
2023/09/29 02:11:39;;;;;;;0.00;0.00;;;17.80;99.90;;;;;;5017479;28;20036;-80
2023/09/29 02:14:05;;;;;;;0.00;0.00;;;17.80;99.90;;;;;;5020355;28;20030;-84
2023/09/29 02:16:31;;;;;;;0.00;0.00;;;17.70;99.90;;;;;;5019314;28;20485;-85
2023/09/29 02:18:57;;;;;;;0.00;0.00;;;17.70;99.90;;;;;;5020369;28;20041;-81
2023/09/29 02:21:25;;;;;;;0.00;0.00;;;17.70;99.90;;;;;;5017081;28;20041;-82
2023/09/29 02:23:51;;;;;;;0.00;0.00;;;17.60;99.90;;;;;;5017042;28;20136;-81
2023/09/29 02:26:17;;;;;;;0.00;0.00;;;17.50;99.90;;;;;;5022869;28;20108;-82
2023/09/29 02:28:43;;;;;;;0.00;0.00;;;17.50;99.90;;;;;;5021829;28;20107;-81
2023/09/29 02:31:14;;;;;;;0.00;0.00;;;17.50;99.90;;;;;;5022203;28;20107;-81
2023/09/29 02:33:41;;;;;;;0.00;0.00;;;17.30;99.90;;;;;;5019318;28;20099;-81
2023/09/29 02:36:09;;;;;;;0.10;0.10;;;17.30;99.90;;;;;;5024413;28;20657;-81
2023/09/29 02:38:38;;;;;;;0.00;0.00;;;17.20;99.90;;;;;;5021075;28;20029;-82
2023/09/29 02:41:04;;;;;;;0.00;0.00;;;17.10;99.90;;;;;;5022471;28;20053;-82
2023/09/29 02:43:30;;;;;;;0.00;0.00;;;17.20;99.90;;;;;;5019072;28;20064;-83
2023/09/29 02:45:56;;;;;;;0.00;0.00;;;17.10;99.90;;;;;;5023206;28;20040;-81
2023/09/29 02:48:23;;;;;;;0.00;0.00;;;17.10;99.90;;;;;;5024957;28;20141;-82
2023/09/29 02:50:48;;;;;;;0.00;0.00;;;17.00;99.90;;;;;;5020665;28;20272;-80
2023/09/29 02:53:15;;;;;;;0.00;0.00;;;16.90;99.90;;;;;;5025389;28;20026;-80
2023/09/29 02:55:41;;;;;;;0.30;0.30;;;16.90;99.90;;;;;;5025661;28;20133;-82
2023/09/29 02:58:07;;;;;;;0.00;0.00;;;16.80;99.90;;;;;;5025215;28;20041;-80
2023/09/29 03:00:34;;;;;;;0.00;0.00;;;16.80;99.90;;;;;;5025489;28;20030;-83
2023/09/29 03:03:00;;;;;;;0.00;0.00;;;17.00;99.90;;;;;;5019182;28;21353;-82
2023/09/29 03:05:26;;;;;;;0.10;0.10;;;17.00;99.90;;;;;;5022536;28;20056;-82
2023/09/29 03:07:52;;;;;;;0.00;0.00;;;17.00;99.90;;;;;;5022234;28;20037;-83
2023/09/29 03:10:20;;;;;;;0.07;0.07;;;16.90;99.90;;;;;;5021596;28;20480;-80
2023/09/29 03:12:45;;;;;;;0.00;0.00;;;16.80;99.90;;;;;;5018423;28;20076;-81
2023/09/29 03:15:15;;;;;;;0.00;0.00;;;16.80;99.90;;;;;;5024987;28;20595;-80
2023/09/29 03:17:41;;;;;;;0.00;0.00;;;16.80;99.90;;;;;;5025770;28;20116;-79
2023/09/29 03:20:12;;;;;;;0.10;0.10;;;16.70;99.90;;;;;;5025609;28;20041;-82
2023/09/29 03:22:39;;;;;;;0.00;0.00;;;16.80;99.90;;;;;;5024935;28;20029;-81
2023/09/29 03:25:06;;;;;;;0.22;0.22;;;16.80;99.90;;;;;;5020837;28;20137;-79
2023/09/29 03:27:33;;;;;;;0.00;0.00;;;16.70;99.90;;;;;;5021461;28;20029;-80
2023/09/29 03:29:59;;;;;;;0.13;0.13;;;16.80;99.90;;;;;;5019474;28;20037;-80
2023/09/29 03:32:25;;;;;;;0.00;0.00;;;16.80;99.90;;;;;;5022282;28;20480;-80
2023/09/29 03:34:51;;;;;;;0.00;0.00;;;16.90;99.90;;;;;;5024528;28;20053;-79
2023/09/29 03:37:18;;;;;;;0.00;0.00;;;16.90;99.90;;;;;;5024313;28;20144;-82
2023/09/29 03:39:44;;;;;;;0.00;0.00;;;16.90;99.90;;;;;;5024272;28;20088;-81
2023/09/29 03:42:11;;;;;;;0.00;0.00;;;16.90;99.90;;;;;;5017996;28;20030;-81
2023/09/29 03:44:36;;;;;;;0.00;0.00;;;16.80;99.90;;;;;;5019761;28;20033;-80
2023/09/29 03:47:02;;;;;;;0.07;0.07;;;16.90;99.90;;;;;;5025883;28;20056;-81
2023/09/29 03:49:31;;;;;;;0.00;0.00;;;16.90;99.90;;;;;;5020156;28;20091;-81
2023/09/29 03:51:57;;;;;;;0.00;0.00;;;17.00;99.90;;;;;;5024942;28;20041;-81
2023/09/29 03:54:23;;;;;;;0.00;0.00;;;17.00;99.90;;;;;;5020299;28;20044;-82
2023/09/29 03:56:51;;;;;;;0.00;0.00;;;16.90;99.90;;;;;;5017870;28;20538;-79
2023/09/29 03:59:18;;;;;;;0.35;0.35;;;16.90;99.90;;;;;;5024673;28;20531;-80
2023/09/29 04:01:45;;;;;;;0.30;0.30;;;16.90;99.90;;;;;;5024117;28;20021;-82
2023/09/29 04:04:11;;;;;;;0.00;0.00;;;17.00;99.90;;;;;;5024416;28;20025;-82
2023/09/29 04:06:37;;;;;;;0.00;0.00;;;16.90;99.90;;;;;;5022749;28;20030;-83
2023/09/29 04:09:04;;;;;;;0.00;0.00;;;17.00;99.90;;;;;;5023155;28;20925;-81
2023/09/29 04:11:30;;;;;;;0.00;0.00;;;16.90;99.90;;;;;;5018249;28;20056;-80
2023/09/29 04:13:56;;;;;;;0.00;0.00;;;16.80;99.90;;;;;;5020453;28;20036;-80
2023/09/29 04:16:22;;;;;;;0.00;0.00;;;16.70;99.90;;;;;;5023004;28;20034;-80
2023/09/29 04:18:48;;;;;;;0.00;0.00;;;16.60;99.90;;;;;;5020005;28;20033;-81
2023/09/29 04:21:15;;;;;;;0.00;0.00;;;16.60;99.90;;;;;;5022340;28;20525;-81
2023/09/29 04:23:43;;;;;;;0.00;0.00;;;16.60;99.90;;;;;;5016629;28;20108;-80
2023/09/29 04:26:18;;;;;;;0.00;0.00;;;16.70;99.90;;;;;;5021845;28;20516;-80
2023/09/29 04:28:45;;;;;;;21.83;2.20;;;16.60;99.90;;;;;;5014286;28;20069;-82
2023/09/29 04:31:10;;;;;;;0.10;0.10;;;16.60;99.90;;;;;;5017026;28;20038;-81
2023/09/29 04:33:37;;;;;;;0.00;0.00;;;16.70;99.90;;;;;;5015662;28;20124;-81
2023/09/29 04:36:03;;;;;;;0.00;0.00;;;16.60;99.90;;;;;;5015885;28;20095;-82
2023/09/29 04:38:28;;;;;;;0.00;0.00;;;16.60;99.90;;;;;;5020546;28;20042;-81
2023/09/29 04:40:54;;;;;;;0.00;0.00;;;16.60;99.90;;;;;;5024256;28;20041;-80
2023/09/29 04:43:20;;;;;;;0.00;0.00;;;16.50;99.90;;;;;;5023868;28;20154;-80
2023/09/29 04:45:46;;;;;;;0.17;0.17;;;16.50;99.90;;;;;;5022295;28;20056;-79
2023/09/29 04:48:11;;;;;;;0.00;0.00;;;16.60;99.90;;;;;;5020316;28;20033;-81
2023/09/29 04:50:37;;;;;;;0.00;0.00;;;16.60;99.90;;;;;;5017267;28;20386;-83
2023/09/29 04:53:03;;;;;;;0.10;0.10;;;16.50;99.90;;;;;;5020185;28;20022;-81
2023/09/29 04:55:28;;;;;;;0.30;0.30;;;16.50;99.90;;;;;;5020716;28;20451;-80
2023/09/29 04:57:54;;;;;;;0.00;0.00;;;16.40;99.90;;;;;;5022174;28;20032;-81
2023/09/29 05:00:21;;;;;;;0.00;0.00;;;16.30;99.90;;;;;;5019459;28;20029;-80
2023/09/29 05:02:47;;;;;;;0.00;0.00;;;16.30;99.90;;;;;;5019922;28;20029;-81
2023/09/29 05:05:13;;;;;;;0.05;0.05;;;16.20;99.90;;;;;;5020037;28;20052;-81
2023/09/29 05:07:39;;;;;;;0.00;0.00;;;16.20;99.90;;;;;;5021630;28;20029;-79
2023/09/29 05:10:05;;;;;;;0.00;0.00;;;16.30;99.90;;;;;;5021488;28;20048;-81
2023/09/29 05:12:32;;;;;;;0.00;0.00;;;16.30;99.90;;;;;;5022116;28;20060;-80
2023/09/29 05:14:58;;;;;;;0.00;0.00;;;16.20;99.90;;;;;;5021185;28;20025;-81
2023/09/29 05:17:23;;;;;;;0.10;0.10;;;16.10;99.90;;;;;;5017188;28;20154;-80
2023/09/29 05:19:49;;;;;;;0.00;0.00;;;16.10;99.90;;;;;;5020278;28;20111;-80
2023/09/29 05:22:15;;;;;;;0.07;0.07;;;16.10;99.90;;;;;;5020570;28;20025;-80
2023/09/29 05:24:40;;;;;;;0.00;0.00;;;16.20;99.90;;;;;;5014909;28;20096;-80
2023/09/29 05:27:06;;;;;;;0.00;0.00;;;16.10;99.90;;;;;;5022459;28;20095;-79
2023/09/29 05:29:32;;;;;;;0.00;0.00;;;16.20;99.90;;;;;;5022185;28;20037;-80
2023/09/29 05:31:58;;;;;;;0.00;0.00;;;16.10;99.90;;;;;;5022750;28;20503;-80
2023/09/29 05:34:23;;;;;;;0.10;0.10;;;16.10;99.90;;;;;;5022039;28;20029;-79
2023/09/29 05:36:49;;;;;;;0.00;0.00;;;16.10;99.90;;;;;;5022519;28;20100;-79
2023/09/29 05:39:15;;;;;;;0.30;0.30;;;16.10;99.90;;;;;;5022766;28;20803;-80
2023/09/29 05:41:40;;;;;;;0.00;0.00;;;16.00;99.90;;;;;;5022719;28;20106;-79
2023/09/29 05:44:06;;;;;;;0.00;0.00;;;16.00;99.90;;;;;;5022319;28;20539;-79
2023/09/29 05:46:32;;;;;;;0.00;0.00;;;15.90;99.90;;;;;;5022820;28;20082;-79
2023/09/29 05:48:58;;;;;;;0.10;0.10;;;16.00;99.90;;;;;;5022316;28;20481;-78
2023/09/29 05:51:23;;;;;;;0.00;0.00;;;16.10;99.90;;;;;;5023069;28;20041;-79
2023/09/29 05:53:49;;;;;;;0.10;0.10;;;15.90;99.90;;;;;;5022872;28;20034;-77
2023/09/29 05:56:15;;;;;;;0.00;0.00;;;15.90;99.90;;;;;;5019619;28;20043;-79
2023/09/29 05:58:41;;;;;;;0.10;0.10;;;16.20;99.90;;;;;;5022656;28;20029;-77
2023/09/29 06:01:11;;;;;;;0.10;0.10;;;16.30;99.90;;;;;;5022899;28;20029;-78
2023/09/29 06:03:37;;;;;;;0.10;0.10;;;16.50;99.90;;;;;;5030524;28;20026;-79
2023/09/29 06:06:04;;;;;;;0.55;0.30;;;16.90;99.90;;;;;;5024322;28;20052;-81
2023/09/29 06:08:30;;;;;;;0.00;0.00;;;16.60;99.90;;;;;;5024944;28;20033;-78
2023/09/29 06:10:56;;;;;;;0.87;0.87;;;16.70;99.90;;;;;;5030249;28;20694;-81
2023/09/29 06:13:22;;;;;;;0.00;0.00;;;16.90;99.90;;;;;;5017554;28;20026;-76
2023/09/29 06:15:48;;;;;;;0.00;0.00;;;17.30;99.90;;;;;;5041837;28;20037;-76
2023/09/29 06:18:15;;;;;;;0.10;0.10;;;17.60;99.90;;;;;;5027424;28;20250;-79
2023/09/29 06:20:40;;;;;;;0.10;0.10;;;17.70;99.90;;;;;;5026265;28;20526;-78
2023/09/29 06:23:06;;;;;;;0.00;0.00;;;17.50;99.90;;;;;;5026702;28;20029;-78
2023/09/29 06:25:33;;;;;;;0.00;0.00;;;17.60;99.90;;;;;;5026300;28;20064;-78
2023/09/29 06:27:59;;;;;;;0.30;0.30;;;17.70;99.90;;;;;;5027055;28;20033;-76
2023/09/29 06:30:24;;;;;;;0.00;0.00;;;18.00;99.90;;;;;;5030199;28;20040;-80
2023/09/29 06:32:50;;;;;;;0.00;0.00;;;17.90;99.90;;;;;;5027075;28;20029;-77
2023/09/29 06:35:16;;;;;;;0.00;0.00;;;17.90;99.90;;;;;;5030783;28;20041;-76
2023/09/29 06:37:42;;;;;;;0.00;0.00;;;18.30;99.90;;;;;;5026615;28;20930;-81
2023/09/29 06:40:12;;;;;;;0.10;0.10;;;18.40;99.90;;;;;;5025751;28;20272;-79
2023/09/29 06:42:40;;;;;;;0.00;0.00;;;18.80;99.90;;;;;;5026063;28;20048;-81
2023/09/29 06:45:07;;;;;;;0.32;0.32;;;19.30;99.90;;;;;;5025717;28;20033;-80
2023/09/29 06:47:33;;;;;;;0.00;0.00;;;19.90;99.00;;;;;;5026055;28;20485;-80
2023/09/29 06:49:59;;;;;;;;;;;20.40;97.50;;;;;;5022011;28;20041;-82
2023/09/29 06:52:25;;;;;;;0.00;0.00;;;20.70;96.20;;;;;;5019783;28;19979;-82
2023/09/29 06:54:51;;;;;;;0.00;0.00;;;20.60;96.00;;;;;;5026449;28;20037;-81
2023/09/29 06:57:17;;;;;;;0.00;0.00;;;21.10;95.20;;;;;;5024537;28;20038;-81
2023/09/29 06:59:42;;;;;;;0.00;0.00;;;21.40;94.70;;;;;;5023767;28;20087;-81
2023/09/29 07:02:08;;;;;;;0.00;0.00;;;21.50;94.70;;;;;;5024494;28;20595;-81
2023/09/29 07:04:34;;;;;;;0.00;0.00;;;21.40;94.00;;;;;;5024612;28;20740;-82
2023/09/29 07:07:00;;;;;;;0.00;0.00;;;21.30;94.30;;;;;;5024565;28;20044;-82
2023/09/29 07:09:26;;;;;;;0.00;0.00;;;21.30;93.50;;;;;;5024710;28;20029;-80
2023/09/29 07:11:52;;;;;;;0.00;0.00;;;21.30;93.60;;;;;;5025631;28;20036;-81
2023/09/29 07:14:17;;;;;;;0.00;0.00;;;21.60;93.50;;;;;;5024708;28;20052;-81
2023/09/29 07:16:44;;;;;;;0.00;0.00;;;21.90;92.70;;;;;;5025720;28;20029;-81
2023/09/29 07:19:12;;;;;;;;;;;21.90;92.50;;;;;;5025852;28;20026;-81
2023/09/29 07:21:38;;;;;;;0.10;0.10;;;22.30;92.10;;;;;;5025678;28;19917;-81
2023/09/29 07:24:05;;;;;;;0.00;0.00;;;22.70;91.50;;;;;;5024932;28;20989;-81
2023/09/29 07:26:31;;;;;;;0.00;0.00;;;22.60;91.10;;;;;;5025356;28;20496;-81
2023/09/29 07:29:01;;;;;;;0.00;0.00;;;23.20;89.40;;;;;;5019909;28;20030;-81
2023/09/29 07:31:36;;;;;;;0.00;0.00;;;23.30;88.40;;;;;;5022789;28;20970;-80
2023/09/29 07:34:02;;;;;;;0.00;0.00;;;23.50;87.20;;;;;;5025057;28;20121;-81
2023/09/29 07:36:33;;;;;;;0.00;0.00;;;23.40;87.00;;;;;;5023291;28;20037;-82
2023/09/29 07:38:58;;;;;;;0.00;0.00;;;23.50;88.30;;;;;;5025294;28;20031;-80
2023/09/29 07:41:25;;;;;;;0.85;0.85;;;23.70;86.40;;;;;;5012365;28;20650;-83
2023/09/29 07:43:51;;;;;;;0.00;0.00;;;24.40;84.40;;;;;;5017376;28;20037;-81
2023/09/29 07:46:16;;;;;;;0.00;0.00;;;24.50;83.40;;;;;;5019157;28;20136;-81
2023/09/29 07:48:42;;;;;;;0.00;0.00;;;24.60;83.20;;;;;;5025344;28;20071;-82
2023/09/29 07:51:08;;;;;;;0.00;0.00;;;24.70;81.70;;;;;;5024381;28;20809;-81
2023/09/29 07:53:34;;;;;;;0.00;0.00;;;24.90;81.30;;;;;;5025136;28;20103;-81
2023/09/29 07:55:59;;;;;;;0.00;0.00;;;25.40;80.10;;;;;;5012942;28;20025;-83
2023/09/29 07:58:25;;;;;;;0.00;0.00;;;25.90;78.10;;;;;;5014582;28;20078;-82
2023/09/29 08:00:51;;;;;;;0.00;0.00;;;26.30;78.30;;;;;;5013275;28;20553;-82
2023/09/29 08:03:17;;;;;;;0.00;0.00;;;26.60;76.50;;;;;;5009101;28;20408;-81
2023/09/29 08:05:42;;;;;;;0.00;0.00;;;26.40;77.60;;;;;;5011787;28;20060;-82
2023/09/29 08:08:08;;;;;;;0.00;0.00;;;26.20;76.60;;;;;;5025100;28;20034;-82
2023/09/29 08:10:34;;;;;;;0.00;0.00;;;26.40;75.90;;;;;;5014477;28;21213;-81
2023/09/29 08:12:59;;;;;;;0.00;0.00;;;26.80;75.30;;;;;;5016728;28;20548;-81
2023/09/29 08:15:25;;;;;;;0.00;0.00;;;26.80;73.70;;;;;;5014910;28;20030;-82
2023/09/29 08:17:51;;;;;;;0.00;0.00;;;27.00;74.00;;;;;;5012856;28;20044;-82
2023/09/29 08:20:18;;;;;;;0.00;0.00;;;27.60;72.60;;;;;;5014404;28;20104;-82
2023/09/29 08:22:44;;;;;;;0.00;0.00;;;27.60;71.00;;;;;;5021473;28;20036;-81
2023/09/29 08:25:11;;;;;;;0.00;0.00;;;27.30;71.60;;;;;;5015483;28;20057;-83
2023/09/29 08:27:37;;;;;;;0.00;0.00;;;27.80;71.30;;;;;;5017702;28;20033;-81
2023/09/29 08:30:05;;;;;;;0.00;0.00;;;28.30;68.80;;;;;;5010833;28;20029;-82
2023/09/29 08:32:31;;;;;;;0.00;0.00;;;29.10;67.90;;;;;;5014633;28;20137;-82
2023/09/29 08:34:56;;;;;;;0.00;0.00;;;28.50;66.90;;;;;;5018795;28;20706;-82
2023/09/29 08:37:22;;;;;;;0.00;0.00;;;28.40;66.90;;;;;;5021974;28;20033;-82
2023/09/29 08:39:49;;;;;;;0.00;0.00;;;29.20;67.40;;;;;;5007079;28;20026;-82
2023/09/29 08:42:31;;;;;;;0.00;0.00;;;29.20;66.90;;;;;;5014281;28;20032;-83
2023/09/29 08:45:00;;;;;;;0.00;0.00;;;29.30;67.00;;;;;;5012697;28;20566;-83
2023/09/29 08:47:29;;;;;;;0.00;0.00;;;29.40;66.70;;;;;;5023830;28;20025;-81
2023/09/29 08:49:59;;;;;;;0.00;0.00;;;29.40;67.00;;;;;;5023279;28;20040;-82
2023/09/29 08:52:28;;;;;;;0.65;0.65;;;29.30;66.10;;;;;;5023452;28;20025;-82
2023/09/29 08:54:55;;;;;;;0.00;0.00;;;29.50;66.10;;;;;;5008579;28;20145;-81
2023/09/29 08:57:21;;;;;;;0.00;0.00;;;29.80;64.40;;;;;;5012918;28;20029;-82
2023/09/29 08:59:49;;;;;;;0.00;0.00;;;29.90;65.30;;;;;;5023344;28;20029;-81
2023/09/29 09:02:15;;;;;;;0.00;0.00;;;29.60;65.20;;;;;;5023538;28;20025;-82
2023/09/29 09:04:41;;;;;;;0.00;0.00;;;29.70;66.00;;;;;;5013634;28;20041;-79
2023/09/29 09:07:06;;;;;;;0.00;0.00;;;29.70;66.20;;;;;;5017874;28;20025;-80
2023/09/29 09:09:35;;;;;;;0.00;0.00;;;30.20;66.70;;;;;;5022283;28;20504;-80
2023/09/29 09:12:01;;;;;;;0.00;0.00;;;29.70;64.70;;;;;;5023891;28;20500;-80
2023/09/29 09:14:37;;;;;;;0.00;0.00;;;29.30;66.70;;;;;;5023243;28;20105;-80
2023/09/29 09:17:04;;;;;;;0.00;0.00;;;29.40;66.00;;;;;;5023206;28;20025;-79
2023/09/29 09:19:30;;;;;;;0.00;0.00;;;30.10;65.10;;;;;;5022927;28;20075;-78
2023/09/29 09:21:55;;;;;;;0.00;0.00;;;29.10;65.10;;;;;;5023332;28;20030;-79
2023/09/29 09:24:23;;;;;;;0.00;0.00;;;29.30;66.40;;;;;;5023467;28;20499;-81
2023/09/29 09:26:50;;;;;;;0.55;0.43;;;30.10;64.10;;;;;;5021288;28;20040;-79
2023/09/29 09:29:17;;;;;;;0.00;0.00;;;30.40;62.70;;;;;;5022585;28;20117;-79
2023/09/29 09:31:49;;;;;;;0.00;0.00;;;30.00;61.60;;;;;;5022901;28;20056;-81
2023/09/29 09:34:15;;;;;;;0.00;0.00;;;30.50;63.30;;;;;;5022335;28;20056;-80
2023/09/29 09:36:52;;;;;;;0.00;0.00;;;30.50;62.60;;;;;;5022449;28;20758;-80
2023/09/29 09:39:24;;;;;;;0.00;0.00;;;30.50;63.20;;;;;;5021010;28;20291;-80
2023/09/29 09:41:59;;;;;;;0.00;0.00;;;29.50;63.10;;;;;;5011443;28;20075;-82
2023/09/29 09:44:26;;;;;;;0.00;0.00;;;29.70;63.60;;;;;;5022282;28;20325;-81
2023/09/29 09:47:04;;;;;;;0.00;0.00;;;28.60;61.50;;;;;;5021017;28;20029;-81
2023/09/29 09:49:44;;;;;;;0.00;0.00;;;29.00;64.90;;;;;;5022730;28;20033;-81
2023/09/29 09:52:15;;;;;;;0.00;0.00;;;28.50;66.50;;;;;;5020928;28;20029;-81
2023/09/29 09:54:51;;;;;;;0.00;0.00;;;27.80;64.10;;;;;;5022339;28;20385;-80
2023/09/29 09:57:23;;;;;;;0.00;0.00;;;26.90;69.30;;;;;;5021074;28;20037;-82
2023/09/29 09:59:50;;;;;;;0.00;0.00;;;26.70;69.50;;;;;;5020469;28;20663;-81
2023/09/29 10:02:18;;;;;;;0.00;0.00;;;27.30;68.90;;;;;;5014702;28;20044;-80
2023/09/29 10:04:46;;;;;;;0.45;0.45;;;26.80;68.00;;;;;;5021318;28;20029;-81
2023/09/29 10:07:14;;;;;;;0.00;0.00;;;26.50;69.30;;;;;;5022146;28;20033;-79
2023/09/29 10:09:45;;;;;;;0.00;0.00;;;27.00;70.60;;;;;;5022779;28;20029;-78
2023/09/29 10:12:28;;;;;;;0.00;0.00;;;27.10;71.00;;;;;;5017522;28;20492;-79
2023/09/29 10:14:56;;;;;;;0.00;0.00;;;26.80;71.70;;;;;;5018197;28;20029;-79
2023/09/29 10:17:22;;;;;;;0.00;0.00;;;26.40;71.50;;;;;;5009209;28;20040;-78
2023/09/29 10:19:52;;;;;;;0.00;0.00;;;27.20;70.30;;;;;;5021954;28;20056;-78
2023/09/29 10:22:25;;;;;;;0.00;0.00;;;26.80;69.70;;;;;;5022435;28;20100;-78
2023/09/29 10:24:56;;;;;;;0.00;0.00;;;26.90;73.30;;;;;;5022179;28;20111;-79
2023/09/29 10:27:33;;;;;;;0.00;0.00;;;26.90;75.00;;;;;;5020355;28;20125;-78
2023/09/29 10:30:16;;;;;;;0.00;0.00;;;26.90;76.60;;;;;;5018578;28;20036;-78
2023/09/29 10:32:43;;;;;;;0.00;0.00;;;26.30;76.20;;;;;;5017888;28;20101;-78
2023/09/29 10:35:18;;;;;;;0.00;0.00;;;26.40;77.40;;;;;;5019030;28;20055;-79
2023/09/29 10:37:54;;;;;;;0.00;0.00;;;26.50;78.70;;;;;;5022284;28;20033;-79
2023/09/29 10:40:31;;;;;;;1.70;1.15;;;26.60;75.30;;;;;;5021375;28;20029;-80
2023/09/29 10:43:04;;;;;;;0.00;0.00;;;26.30;78.00;;;;;;5022202;28;20524;-79
2023/09/29 10:45:37;;;;;;;0.00;0.00;;;26.30;76.70;;;;;;5017858;28;20029;-80
2023/09/29 10:48:13;;;;;;;0.00;0.00;;;26.10;77.80;;;;;;5019581;28;20041;-80
2023/09/29 10:50:39;;;;;;;0.00;0.00;;;26.50;79.40;;;;;;5014133;28;20038;-80
2023/09/29 10:53:07;;;;;;;0.00;0.00;;;26.40;78.90;;;;;;5022563;28;20503;-80
2023/09/29 10:55:44;;;;;;;0.00;0.00;;;26.30;80.60;;;;;;5025633;28;20033;-79
2023/09/29 10:58:13;;;;;;;0.00;0.00;;;26.40;80.30;;;;;;5015221;28;20033;-78
2023/09/29 11:00:50;;;;;;;0.00;0.00;;;26.20;75.70;;;;;;5025978;28;20026;-79
2023/09/29 11:03:21;;;;;;;0.00;0.00;;;26.10;78.00;;;;;;5024780;28;20057;-79
2023/09/29 11:05:48;;;;;;;0.00;0.00;;;26.20;75.90;;;;;;5025147;28;20160;-79
2023/09/29 11:08:19;;;;;;;0.00;0.00;;;26.30;78.10;;;;;;5025519;28;20029;-81
2023/09/29 11:10:59;;;;;;;0.00;0.00;;;26.50;78.60;;;;;;5012118;28;20154;-79
2023/09/29 11:13:26;;;;;;;0.00;0.00;;;26.40;78.20;;;;;;5016713;28;20075;-80
2023/09/29 11:15:52;;;;;;;0.10;0.10;;;26.10;77.70;;;;;;5025034;28;20469;-79
2023/09/29 11:18:32;;;;;;;0.00;0.00;;;26.40;78.20;;;;;;5025178;28;20116;-79
2023/09/29 11:20:59;;;;;;;0.00;0.00;;;26.40;77.70;;;;;;5024941;28;20037;-79
2023/09/29 11:23:25;;;;;;;0.00;0.00;;;26.30;82.10;;;;;;5020940;28;20029;-78
2023/09/29 11:26:02;;;;;;;0.00;0.00;;;26.30;77.80;;;;;;5023798;28;20406;-80
2023/09/29 11:28:28;;;;;;;0.00;0.00;;;26.20;75.80;;;;;;5024215;28;20037;-81
2023/09/29 11:30:54;;;;;;;0.00;0.00;;;26.00;76.90;;;;;;5012415;28;20041;-81
2023/09/29 11:33:21;;;;;;;0.00;0.00;;;26.00;79.40;;;;;;5025152;28;20036;-81
2023/09/29 11:35:47;;;;;;;0.00;0.00;;;25.70;77.50;;;;;;5024570;28;20026;-81
2023/09/29 11:38:19;;;;;;;0.00;0.00;;;25.80;77.50;;;;;;5024435;28;20033;-81
2023/09/29 11:40:49;;;;;;;0.00;0.00;;;25.70;76.90;;;;;;5023700;28;20033;-82
2023/09/29 11:43:15;;;;;;;0.00;0.00;;;25.40;76.20;;;;;;5023962;28;20125;-82
2023/09/29 11:45:41;;;;;;;0.00;0.00;;;25.20;75.50;;;;;;5022410;28;20037;-81
2023/09/29 11:48:07;;;;;;;0.00;0.00;;;25.10;77.00;;;;;;5023630;28;20132;-81
2023/09/29 11:50:33;;;;;;;0.00;0.00;;;25.20;78.20;;;;;;5023538;28;20037;-81
2023/09/29 11:53:03;;;;;;;0.00;0.00;;;25.50;80.50;;;;;;5023621;28;20064;-81
2023/09/29 11:55:29;;;;;;;0.00;0.00;;;25.70;82.40;;;;;;5023355;28;20276;-83
2023/09/29 11:57:55;;;;;;;0.00;0.00;;;25.50;82.00;;;;;;5021513;28;20038;-82
2023/09/29 12:00:21;;;;;;;0.00;0.00;;;25.50;78.90;;;;;;5024189;28;20032;-81
2023/09/29 12:02:47;;;;;;;0.38;0.38;;;25.30;79.40;;;;;;5024533;28;20487;-79
2023/09/29 12:05:12;;;;;;;0.00;0.00;;;25.30;77.60;;;;;;5020411;28;20021;-81
2023/09/29 12:07:38;;;;;;;0.00;0.00;;;25.30;78.50;;;;;;5024240;28;20103;-81
2023/09/29 12:10:04;;;;;;;0.00;0.00;;;25.50;79.70;;;;;;5022768;28;20128;-81
2023/09/29 12:12:32;;;;;;;0.00;0.00;;;25.50;80.70;;;;;;5022938;28;20036;-82
2023/09/29 12:14:58;;;;;;;0.00;0.00;;;25.30;79.10;;;;;;5022807;28;20064;-81
2023/09/29 12:17:25;;;;;;;0.00;0.00;;;25.50;81.90;;;;;;5023352;28;20017;-82
2023/09/29 12:19:51;;;;;;;0.00;0.00;;;25.50;82.50;;;;;;5022704;28;20033;-82
2023/09/29 12:22:18;;;;;;;0.00;0.00;;;25.70;81.70;;;;;;5021720;28;20026;-82
2023/09/29 12:24:44;;;;;;;0.00;0.00;;;25.70;80.10;;;;;;5023442;28;20080;-82
2023/09/29 12:27:09;;;;;;;0.00;0.00;;;25.40;76.40;;;;;;5021583;28;20503;-82
2023/09/29 12:29:36;;;;;;;0.00;0.00;;;25.30;76.90;;;;;;5021203;28;20682;-82
2023/09/29 12:32:02;;;;;;;0.00;0.00;;;25.50;78.50;;;;;;5022830;28;20111;-81
2023/09/29 12:34:32;;;;;;;14.18;1.30;;;25.50;79.40;;;;;;5023536;28;20576;-82
2023/09/29 12:36:59;;;;;;;0.00;0.00;;;25.40;78.80;;;;;;5018510;28;20059;-82
2023/09/29 12:39:25;;;;;;;0.00;0.00;;;25.40;77.30;;;;;;5023497;28;20144;-82
2023/09/29 12:41:51;;;;;;;0.00;0.00;;;25.50;79.70;;;;;;5023606;28;20043;-82
2023/09/29 12:44:17;;;;;;;0.00;0.00;;;25.70;80.70;;;;;;5020839;28;20438;-82
2023/09/29 12:46:43;;;;;;;0.00;0.00;;;25.70;82.00;;;;;;5014953;28;20493;-81
2023/09/29 12:49:10;;;;;;;0.00;0.00;;;25.70;80.60;;;;;;5021149;28;20401;-82